sensor_id;sensor_type;location;lat;lon;timestamp;P1;durP1;ratioP1;P2;durP2;ratioP2
32082;SDS011;18597;48.328;7.932;2023-04-25T00:01:31;5.00;;;4.60;;
32082;SDS011;18597;48.328;7.932;2023-04-25T00:04:00;4.50;;;4.10;;
32082;SDS011;18597;48.328;7.932;2023-04-25T00:06:26;3.13;;;3.03;;
32082;SDS011;18597;48.328;7.932;2023-04-25T00:08:52;2.90;;;2.80;;
32082;SDS011;18597;48.328;7.932;2023-04-25T00:11:18;5.93;;;3.10;;
32082;SDS011;18597;48.328;7.932;2023-04-25T00:13:44;4.30;;;3.97;;
32082;SDS011;18597;48.328;7.932;2023-04-25T00:16:11;3.80;;;3.50;;
32082;SDS011;18597;48.328;7.932;2023-04-25T00:18:39;5.87;;;4.70;;
32082;SDS011;18597;48.328;7.932;2023-04-25T00:21:07;5.00;;;4.60;;
32082;SDS011;18597;48.328;7.932;2023-04-25T00:23:33;3.83;;;3.53;;
32082;SDS011;18597;48.328;7.932;2023-04-25T00:26:01;8.57;;;4.83;;
32082;SDS011;18597;48.328;7.932;2023-04-25T00:28:28;5.60;;;3.67;;
32082;SDS011;18597;48.328;7.932;2023-04-25T00:30:53;7.23;;;5.10;;
32082;SDS011;18597;48.328;7.932;2023-04-25T00:33:19;22.90;;;9.33;;
32082;SDS011;18597;48.328;7.932;2023-04-25T00:35:46;11.70;;;4.73;;
32082;SDS011;18597;48.328;7.932;2023-04-25T00:38:11;6.50;;;3.40;;
32082;SDS011;18597;48.328;7.932;2023-04-25T00:40:37;3.73;;;3.47;;
32082;SDS011;18597;48.328;7.932;2023-04-25T00:43:03;7.00;;;4.00;;
32082;SDS011;18597;48.328;7.932;2023-04-25T00:45:29;8.97;;;3.80;;
32082;SDS011;18597;48.328;7.932;2023-04-25T00:47:55;7.83;;;4.40;;
32082;SDS011;18597;48.328;7.932;2023-04-25T00:50:21;4.37;;;4.10;;
32082;SDS011;18597;48.328;7.932;2023-04-25T00:52:48;4.70;;;4.40;;
32082;SDS011;18597;48.328;7.932;2023-04-25T00:55:14;4.50;;;4.20;;
32082;SDS011;18597;48.328;7.932;2023-04-25T00:57:40;5.70;;;4.47;;
32082;SDS011;18597;48.328;7.932;2023-04-25T01:00:08;6.90;;;5.00;;
32082;SDS011;18597;48.328;7.932;2023-04-25T01:02:35;8.50;;;4.73;;
32082;SDS011;18597;48.328;7.932;2023-04-25T01:05:02;4.17;;;3.77;;
32082;SDS011;18597;48.328;7.932;2023-04-25T01:07:29;9.30;;;4.40;;
32082;SDS011;18597;48.328;7.932;2023-04-25T01:09:55;5.50;;;5.00;;
32082;SDS011;18597;48.328;7.932;2023-04-25T01:12:21;4.40;;;4.00;;
32082;SDS011;18597;48.328;7.932;2023-04-25T01:14:48;5.07;;;4.50;;
32082;SDS011;18597;48.328;7.932;2023-04-25T01:17:14;7.10;;;4.30;;
32082;SDS011;18597;48.328;7.932;2023-04-25T01:19:41;5.93;;;4.57;;
32082;SDS011;18597;48.328;7.932;2023-04-25T01:22:07;4.60;;;4.17;;
32082;SDS011;18597;48.328;7.932;2023-04-25T01:24:35;5.53;;;4.60;;
32082;SDS011;18597;48.328;7.932;2023-04-25T01:27:01;11.63;;;4.30;;
32082;SDS011;18597;48.328;7.932;2023-04-25T01:29:28;9.33;;;4.60;;
32082;SDS011;18597;48.328;7.932;2023-04-25T01:31:55;5.20;;;3.87;;
32082;SDS011;18597;48.328;7.932;2023-04-25T01:34:23;4.00;;;3.70;;
32082;SDS011;18597;48.328;7.932;2023-04-25T01:36:49;4.33;;;4.00;;
32082;SDS011;18597;48.328;7.932;2023-04-25T01:39:17;6.10;;;4.07;;
32082;SDS011;18597;48.328;7.932;2023-04-25T01:41:44;3.90;;;3.70;;
32082;SDS011;18597;48.328;7.932;2023-04-25T01:44:12;5.17;;;4.27;;
32082;SDS011;18597;48.328;7.932;2023-04-25T01:46:39;4.90;;;4.00;;
32082;SDS011;18597;48.328;7.932;2023-04-25T01:49:06;5.20;;;4.20;;
32082;SDS011;18597;48.328;7.932;2023-04-25T01:51:32;3.70;;;3.60;;
32082;SDS011;18597;48.328;7.932;2023-04-25T01:53:58;4.00;;;3.73;;
32082;SDS011;18597;48.328;7.932;2023-04-25T01:56:25;5.70;;;4.33;;
32082;SDS011;18597;48.328;7.932;2023-04-25T01:58:56;6.83;;;3.70;;
32082;SDS011;18597;48.328;7.932;2023-04-25T02:01:23;4.47;;;4.17;;
32082;SDS011;18597;48.328;7.932;2023-04-25T02:03:48;12.30;;;3.60;;
32082;SDS011;18597;48.328;7.932;2023-04-25T02:06:15;6.93;;;3.50;;
32082;SDS011;18597;48.328;7.932;2023-04-25T02:08:40;3.60;;;3.40;;
32082;SDS011;18597;48.328;7.932;2023-04-25T02:11:06;6.70;;;4.43;;
32082;SDS011;18597;48.328;7.932;2023-04-25T02:13:32;6.13;;;4.10;;
32082;SDS011;18597;48.328;7.932;2023-04-25T02:15:58;5.50;;;4.60;;
32082;SDS011;18597;48.328;7.932;2023-04-25T02:18:24;4.23;;;3.93;;
32082;SDS011;18597;48.328;7.932;2023-04-25T02:20:51;4.90;;;4.50;;
32082;SDS011;18597;48.328;7.932;2023-04-25T02:23:17;7.43;;;4.17;;
32082;SDS011;18597;48.328;7.932;2023-04-25T02:25:44;5.30;;;4.80;;
32082;SDS011;18597;48.328;7.932;2023-04-25T02:28:10;5.30;;;4.87;;
32082;SDS011;18597;48.328;7.932;2023-04-25T02:30:36;8.13;;;4.70;;
32082;SDS011;18597;48.328;7.932;2023-04-25T02:33:02;7.33;;;6.03;;
32082;SDS011;18597;48.328;7.932;2023-04-25T02:35:28;7.73;;;5.37;;
32082;SDS011;18597;48.328;7.932;2023-04-25T02:37:53;6.33;;;4.80;;
32082;SDS011;18597;48.328;7.932;2023-04-25T02:40:19;6.43;;;5.90;;
32082;SDS011;18597;48.328;7.932;2023-04-25T02:42:45;8.33;;;4.90;;
32082;SDS011;18597;48.328;7.932;2023-04-25T02:45:11;4.53;;;4.23;;
32082;SDS011;18597;48.328;7.932;2023-04-25T02:47:37;6.37;;;5.87;;
32082;SDS011;18597;48.328;7.932;2023-04-25T02:50:03;8.13;;;4.77;;
32082;SDS011;18597;48.328;7.932;2023-04-25T02:52:29;5.40;;;4.90;;
32082;SDS011;18597;48.328;7.932;2023-04-25T02:54:55;7.00;;;4.90;;
32082;SDS011;18597;48.328;7.932;2023-04-25T02:57:21;4.83;;;4.40;;
32082;SDS011;18597;48.328;7.932;2023-04-25T02:59:47;4.77;;;4.37;;
32082;SDS011;18597;48.328;7.932;2023-04-25T03:02:13;7.60;;;4.43;;
32082;SDS011;18597;48.328;7.932;2023-04-25T03:04:38;4.00;;;3.80;;
32082;SDS011;18597;48.328;7.932;2023-04-25T03:07:04;7.40;;;5.20;;
32082;SDS011;18597;48.328;7.932;2023-04-25T03:09:31;5.20;;;4.70;;
32082;SDS011;18597;48.328;7.932;2023-04-25T03:11:56;4.67;;;4.30;;
32082;SDS011;18597;48.328;7.932;2023-04-25T03:14:22;6.43;;;5.70;;
32082;SDS011;18597;48.328;7.932;2023-04-25T03:16:48;6.63;;;4.80;;
32082;SDS011;18597;48.328;7.932;2023-04-25T03:19:14;7.70;;;5.07;;
32082;SDS011;18597;48.328;7.932;2023-04-25T03:21:42;5.77;;;5.37;;
32082;SDS011;18597;48.328;7.932;2023-04-25T03:24:08;9.07;;;5.00;;
32082;SDS011;18597;48.328;7.932;2023-04-25T03:26:35;6.40;;;5.13;;
32082;SDS011;18597;48.328;7.932;2023-04-25T03:29:01;4.70;;;4.17;;
32082;SDS011;18597;48.328;7.932;2023-04-25T03:31:27;6.23;;;4.13;;
32082;SDS011;18597;48.328;7.932;2023-04-25T03:33:53;4.80;;;4.00;;
32082;SDS011;18597;48.328;7.932;2023-04-25T03:36:19;5.30;;;4.40;;
32082;SDS011;18597;48.328;7.932;2023-04-25T03:38:44;5.67;;;4.80;;
32082;SDS011;18597;48.328;7.932;2023-04-25T03:41:10;5.23;;;4.83;;
32082;SDS011;18597;48.328;7.932;2023-04-25T03:43:37;11.80;;;5.00;;
32082;SDS011;18597;48.328;7.932;2023-04-25T03:46:02;5.33;;;4.80;;
32082;SDS011;18597;48.328;7.932;2023-04-25T03:48:28;9.60;;;6.90;;
32082;SDS011;18597;48.328;7.932;2023-04-25T03:50:54;8.50;;;5.60;;
32082;SDS011;18597;48.328;7.932;2023-04-25T03:53:20;5.13;;;4.70;;
32082;SDS011;18597;48.328;7.932;2023-04-25T03:55:46;6.43;;;5.60;;
32082;SDS011;18597;48.328;7.932;2023-04-25T03:58:12;13.70;;;5.97;;
32082;SDS011;18597;48.328;7.932;2023-04-25T04:00:38;5.80;;;4.85;;
32082;SDS011;18597;48.328;7.932;2023-04-25T04:03:03;5.80;;;5.20;;
32082;SDS011;18597;48.328;7.932;2023-04-25T04:05:29;10.70;;;5.10;;
32082;SDS011;18597;48.328;7.932;2023-04-25T04:07:55;11.50;;;5.50;;
32082;SDS011;18597;48.328;7.932;2023-04-25T04:10:22;7.47;;;5.43;;
32082;SDS011;18597;48.328;7.932;2023-04-25T04:12:48;5.77;;;5.27;;
32082;SDS011;18597;48.328;7.932;2023-04-25T04:15:14;4.80;;;4.40;;
32082;SDS011;18597;48.328;7.932;2023-04-25T04:17:40;6.30;;;5.60;;
32082;SDS011;18597;48.328;7.932;2023-04-25T04:20:06;11.87;;;5.80;;
32082;SDS011;18597;48.328;7.932;2023-04-25T04:22:33;5.20;;;4.80;;
32082;SDS011;18597;48.328;7.932;2023-04-25T04:24:59;5.90;;;5.23;;
32082;SDS011;18597;48.328;7.932;2023-04-25T04:27:25;11.60;;;6.03;;
32082;SDS011;18597;48.328;7.932;2023-04-25T04:29:53;9.47;;;5.33;;
32082;SDS011;18597;48.328;7.932;2023-04-25T04:32:19;13.93;;;5.60;;
32082;SDS011;18597;48.328;7.932;2023-04-25T04:34:45;7.20;;;5.33;;
32082;SDS011;18597;48.328;7.932;2023-04-25T04:37:12;5.80;;;5.30;;
32082;SDS011;18597;48.328;7.932;2023-04-25T04:39:38;10.97;;;6.67;;
32082;SDS011;18597;48.328;7.932;2023-04-25T04:42:04;8.37;;;6.40;;
32082;SDS011;18597;48.328;7.932;2023-04-25T04:44:30;9.23;;;6.17;;
32082;SDS011;18597;48.328;7.932;2023-04-25T04:46:58;8.27;;;6.80;;
32082;SDS011;18597;48.328;7.932;2023-04-25T04:49:24;11.50;;;7.10;;
32082;SDS011;18597;48.328;7.932;2023-04-25T04:51:50;7.07;;;6.50;;
32082;SDS011;18597;48.328;7.932;2023-04-25T04:54:16;12.93;;;6.60;;
32082;SDS011;18597;48.328;7.932;2023-04-25T04:56:42;9.40;;;6.70;;
32082;SDS011;18597;48.328;7.932;2023-04-25T04:59:08;9.10;;;6.57;;
32082;SDS011;18597;48.328;7.932;2023-04-25T05:01:34;11.47;;;6.30;;
32082;SDS011;18597;48.328;7.932;2023-04-25T05:04:00;15.83;;;6.67;;
32082;SDS011;18597;48.328;7.932;2023-04-25T05:06:27;5.87;;;5.47;;
32082;SDS011;18597;48.328;7.932;2023-04-25T05:08:54;7.37;;;5.67;;
32082;SDS011;18597;48.328;7.932;2023-04-25T05:11:21;11.90;;;7.83;;
32082;SDS011;18597;48.328;7.932;2023-04-25T05:13:50;8.70;;;6.03;;
32082;SDS011;18597;48.328;7.932;2023-04-25T05:16:18;10.20;;;7.23;;
32082;SDS011;18597;48.328;7.932;2023-04-25T05:18:45;8.00;;;7.40;;
32082;SDS011;18597;48.328;7.932;2023-04-25T05:21:13;11.30;;;6.97;;
32082;SDS011;18597;48.328;7.932;2023-04-25T05:23:39;12.10;;;6.93;;
32082;SDS011;18597;48.328;7.932;2023-04-25T05:26:04;7.40;;;6.60;;
32082;SDS011;18597;48.328;7.932;2023-04-25T05:28:30;6.43;;;5.83;;
32082;SDS011;18597;48.328;7.932;2023-04-25T05:30:56;10.70;;;6.87;;
32082;SDS011;18597;48.328;7.932;2023-04-25T05:33:22;7.00;;;5.83;;
32082;SDS011;18597;48.328;7.932;2023-04-25T05:35:48;11.20;;;7.20;;
32082;SDS011;18597;48.328;7.932;2023-04-25T05:38:15;8.80;;;6.63;;
32082;SDS011;18597;48.328;7.932;2023-04-25T05:40:40;10.57;;;7.93;;
32082;SDS011;18597;48.328;7.932;2023-04-25T05:43:06;8.47;;;7.13;;
32082;SDS011;18597;48.328;7.932;2023-04-25T05:45:32;12.83;;;7.20;;
32082;SDS011;18597;48.328;7.932;2023-04-25T05:47:58;8.53;;;7.63;;
32082;SDS011;18597;48.328;7.932;2023-04-25T05:50:24;13.43;;;7.23;;
32082;SDS011;18597;48.328;7.932;2023-04-25T05:52:50;6.30;;;5.70;;
32082;SDS011;18597;48.328;7.932;2023-04-25T05:55:16;7.63;;;6.27;;
32082;SDS011;18597;48.328;7.932;2023-04-25T05:57:42;7.37;;;6.17;;
32082;SDS011;18597;48.328;7.932;2023-04-25T06:00:10;7.93;;;6.60;;
32082;SDS011;18597;48.328;7.932;2023-04-25T06:02:40;10.17;;;6.07;;
32082;SDS011;18597;48.328;7.932;2023-04-25T06:05:06;6.30;;;5.77;;
32082;SDS011;18597;48.328;7.932;2023-04-25T06:07:32;13.20;;;7.47;;
32082;SDS011;18597;48.328;7.932;2023-04-25T06:09:58;11.33;;;6.53;;
32082;SDS011;18597;48.328;7.932;2023-04-25T06:12:25;14.07;;;7.33;;
32082;SDS011;18597;48.328;7.932;2023-04-25T06:14:52;10.70;;;7.83;;
32082;SDS011;18597;48.328;7.932;2023-04-25T06:17:17;7.67;;;6.73;;
32082;SDS011;18597;48.328;7.932;2023-04-25T06:19:43;13.13;;;6.93;;
32082;SDS011;18597;48.328;7.932;2023-04-25T06:22:09;10.50;;;5.80;;
32082;SDS011;18597;48.328;7.932;2023-04-25T06:24:35;9.20;;;5.80;;
32082;SDS011;18597;48.328;7.932;2023-04-25T06:27:01;8.03;;;4.37;;
32082;SDS011;18597;48.328;7.932;2023-04-25T06:29:27;6.10;;;5.27;;
32082;SDS011;18597;48.328;7.932;2023-04-25T06:31:53;4.83;;;4.40;;
32082;SDS011;18597;48.328;7.932;2023-04-25T06:34:19;5.17;;;4.70;;
32082;SDS011;18597;48.328;7.932;2023-04-25T06:36:45;4.83;;;4.33;;
32082;SDS011;18597;48.328;7.932;2023-04-25T06:39:11;6.50;;;3.90;;
32082;SDS011;18597;48.328;7.932;2023-04-25T06:41:37;4.37;;;3.40;;
32082;SDS011;18597;48.328;7.932;2023-04-25T06:44:03;4.33;;;3.27;;
32082;SDS011;18597;48.328;7.932;2023-04-25T06:46:28;4.47;;;3.53;;
32082;SDS011;18597;48.328;7.932;2023-04-25T06:48:54;3.67;;;3.37;;
32082;SDS011;18597;48.328;7.932;2023-04-25T06:51:20;3.87;;;3.57;;
32082;SDS011;18597;48.328;7.932;2023-04-25T06:53:46;4.37;;;3.63;;
32082;SDS011;18597;48.328;7.932;2023-04-25T06:56:12;7.53;;;3.67;;
32082;SDS011;18597;48.328;7.932;2023-04-25T06:58:37;4.07;;;3.43;;
32082;SDS011;18597;48.328;7.932;2023-04-25T07:01:03;5.57;;;2.90;;
32082;SDS011;18597;48.328;7.932;2023-04-25T07:03:29;4.27;;;3.00;;
32082;SDS011;18597;48.328;7.932;2023-04-25T07:05:55;9.13;;;3.10;;
32082;SDS011;18597;48.328;7.932;2023-04-25T07:08:21;5.50;;;4.03;;
32082;SDS011;18597;48.328;7.932;2023-04-25T07:10:47;3.70;;;3.43;;
32082;SDS011;18597;48.328;7.932;2023-04-25T07:13:12;4.10;;;3.57;;
32082;SDS011;18597;48.328;7.932;2023-04-25T07:15:38;4.20;;;3.23;;
32082;SDS011;18597;48.328;7.932;2023-04-25T07:18:04;4.07;;;2.33;;
32082;SDS011;18597;48.328;7.932;2023-04-25T07:20:30;4.17;;;2.80;;
32082;SDS011;18597;48.328;7.932;2023-04-25T07:22:56;1.80;;;1.70;;
32082;SDS011;18597;48.328;7.932;2023-04-25T07:25:22;5.40;;;2.00;;
32082;SDS011;18597;48.328;7.932;2023-04-25T07:27:48;2.00;;;1.90;;
32082;SDS011;18597;48.328;7.932;2023-04-25T07:30:14;2.63;;;2.30;;
32082;SDS011;18597;48.328;7.932;2023-04-25T07:32:40;2.23;;;2.03;;
32082;SDS011;18597;48.328;7.932;2023-04-25T07:35:06;3.90;;;2.47;;
32082;SDS011;18597;48.328;7.932;2023-04-25T07:37:33;2.53;;;1.70;;
32082;SDS011;18597;48.328;7.932;2023-04-25T07:40:00;2.63;;;1.93;;
32082;SDS011;18597;48.328;7.932;2023-04-25T07:42:28;3.07;;;2.20;;
32082;SDS011;18597;48.328;7.932;2023-04-25T07:44:55;1.33;;;1.33;;
32082;SDS011;18597;48.328;7.932;2023-04-25T07:47:20;5.43;;;4.77;;
32082;SDS011;18597;48.328;7.932;2023-04-25T07:49:46;13.33;;;10.03;;
32082;SDS011;18597;48.328;7.932;2023-04-25T07:52:12;9.90;;;8.60;;
32082;SDS011;18597;48.328;7.932;2023-04-25T07:54:38;12.13;;;4.83;;
32082;SDS011;18597;48.328;7.932;2023-04-25T07:57:04;1.60;;;1.53;;
32082;SDS011;18597;48.328;7.932;2023-04-25T07:59:31;2.73;;;2.53;;
32082;SDS011;18597;48.328;7.932;2023-04-25T08:01:57;1.60;;;1.50;;
32082;SDS011;18597;48.328;7.932;2023-04-25T08:04:24;1.30;;;1.30;;
32082;SDS011;18597;48.328;7.932;2023-04-25T08:06:50;2.33;;;2.10;;
32082;SDS011;18597;48.328;7.932;2023-04-25T08:09:18;6.17;;;1.30;;
32082;SDS011;18597;48.328;7.932;2023-04-25T08:11:45;2.93;;;2.63;;
32082;SDS011;18597;48.328;7.932;2023-04-25T08:14:11;2.43;;;2.30;;
32082;SDS011;18597;48.328;7.932;2023-04-25T08:16:38;1.80;;;1.80;;
32082;SDS011;18597;48.328;7.932;2023-04-25T08:19:04;1.93;;;1.90;;
32082;SDS011;18597;48.328;7.932;2023-04-25T08:21:30;1.70;;;1.60;;
32082;SDS011;18597;48.328;7.932;2023-04-25T08:23:57;3.40;;;1.80;;
32082;SDS011;18597;48.328;7.932;2023-04-25T08:26:23;2.03;;;1.93;;
32082;SDS011;18597;48.328;7.932;2023-04-25T08:28:50;1.87;;;1.77;;
32082;SDS011;18597;48.328;7.932;2023-04-25T08:31:16;2.70;;;2.50;;
32082;SDS011;18597;48.328;7.932;2023-04-25T08:33:42;3.20;;;3.10;;
32082;SDS011;18597;48.328;7.932;2023-04-25T08:36:09;2.33;;;2.23;;
32082;SDS011;18597;48.328;7.932;2023-04-25T08:38:35;2.43;;;2.33;;
32082;SDS011;18597;48.328;7.932;2023-04-25T08:41:01;2.50;;;2.50;;
32082;SDS011;18597;48.328;7.932;2023-04-25T08:43:28;6.10;;;2.17;;
32082;SDS011;18597;48.328;7.932;2023-04-25T08:45:59;1.97;;;1.97;;
32082;SDS011;18597;48.328;7.932;2023-04-25T08:48:26;3.03;;;1.80;;
32082;SDS011;18597;48.328;7.932;2023-04-25T08:50:54;2.40;;;1.73;;
32082;SDS011;18597;48.328;7.932;2023-04-25T08:53:22;2.93;;;2.83;;
32082;SDS011;18597;48.328;7.932;2023-04-25T08:55:53;2.13;;;2.03;;
32082;SDS011;18597;48.328;7.932;2023-04-25T08:58:21;3.97;;;2.97;;
32082;SDS011;18597;48.328;7.932;2023-04-25T09:00:47;2.50;;;2.40;;
32082;SDS011;18597;48.328;7.932;2023-04-25T09:03:14;3.67;;;3.37;;
32082;SDS011;18597;48.328;7.932;2023-04-25T09:05:41;1.50;;;1.50;;
32082;SDS011;18597;48.328;7.932;2023-04-25T09:08:07;2.50;;;2.50;;
32082;SDS011;18597;48.328;7.932;2023-04-25T09:10:33;1.70;;;1.70;;
32082;SDS011;18597;48.328;7.932;2023-04-25T09:13:05;2.83;;;2.30;;
32082;SDS011;18597;48.328;7.932;2023-04-25T09:15:46;0.80;;;0.80;;
32082;SDS011;18597;48.328;7.932;2023-04-25T09:18:21;0.93;;;0.93;;
32082;SDS011;18597;48.328;7.932;2023-04-25T09:20:53;1.63;;;1.63;;
32082;SDS011;18597;48.328;7.932;2023-04-25T09:23:29;3.33;;;0.80;;
32082;SDS011;18597;48.328;7.932;2023-04-25T09:25:56;1.23;;;1.20;;
32082;SDS011;18597;48.328;7.932;2023-04-25T09:28:23;1.03;;;1.03;;
32082;SDS011;18597;48.328;7.932;2023-04-25T09:30:54;2.20;;;1.57;;
32082;SDS011;18597;48.328;7.932;2023-04-25T09:33:26;1.43;;;1.33;;
32082;SDS011;18597;48.328;7.932;2023-04-25T09:36:01;4.93;;;0.90;;
32082;SDS011;18597;48.328;7.932;2023-04-25T09:38:34;6.70;;;1.10;;
32082;SDS011;18597;48.328;7.932;2023-04-25T09:41:07;8.80;;;2.40;;
32082;SDS011;18597;48.328;7.932;2023-04-25T09:43:35;2.63;;;2.43;;
32082;SDS011;18597;48.328;7.932;2023-04-25T09:46:02;2.30;;;2.20;;
32082;SDS011;18597;48.328;7.932;2023-04-25T09:48:34;1.80;;;1.00;;
32082;SDS011;18597;48.328;7.932;2023-04-25T09:51:09;1.77;;;1.67;;
32082;SDS011;18597;48.328;7.932;2023-04-25T09:53:39;6.50;;;2.27;;
32082;SDS011;18597;48.328;7.932;2023-04-25T09:56:10;1.17;;;1.17;;
32082;SDS011;18597;48.328;7.932;2023-04-25T09:58:37;6.40;;;2.73;;
32082;SDS011;18597;48.328;7.932;2023-04-25T10:01:06;0.70;;;0.70;;
32082;SDS011;18597;48.328;7.932;2023-04-25T10:03:35;0.60;;;0.60;;
32082;SDS011;18597;48.328;7.932;2023-04-25T10:06:07;0.80;;;0.80;;
32082;SDS011;18597;48.328;7.932;2023-04-25T10:08:43;0.53;;;0.53;;
32082;SDS011;18597;48.328;7.932;2023-04-25T10:11:10;0.57;;;0.50;;
32082;SDS011;18597;48.328;7.932;2023-04-25T10:13:39;1.27;;;1.07;;
32082;SDS011;18597;48.328;7.932;2023-04-25T10:16:06;0.70;;;0.50;;
32082;SDS011;18597;48.328;7.932;2023-04-25T10:18:33;2.30;;;0.40;;
32082;SDS011;18597;48.328;7.932;2023-04-25T10:21:00;0.60;;;0.60;;
32082;SDS011;18597;48.328;7.932;2023-04-25T10:23:30;1.00;;;1.00;;
32082;SDS011;18597;48.328;7.932;2023-04-25T10:25:56;0.60;;;0.60;;
32082;SDS011;18597;48.328;7.932;2023-04-25T10:28:23;1.67;;;0.77;;
32082;SDS011;18597;48.328;7.932;2023-04-25T10:33:32;0.70;;;0.70;;
32082;SDS011;18597;48.328;7.932;2023-04-25T10:36:09;2.30;;;0.93;;
32082;SDS011;18597;48.328;7.932;2023-04-25T10:38:37;0.77;;;0.77;;
32082;SDS011;18597;48.328;7.932;2023-04-25T10:41:05;1.03;;;1.03;;
32082;SDS011;18597;48.328;7.932;2023-04-25T10:43:34;0.73;;;0.73;;
32082;SDS011;18597;48.328;7.932;2023-04-25T10:46:19;0.93;;;0.93;;
32082;SDS011;18597;48.328;7.932;2023-04-25T10:48:51;1.03;;;1.03;;
32082;SDS011;18597;48.328;7.932;2023-04-25T10:54:01;1.20;;;1.20;;
32082;SDS011;18597;48.328;7.932;2023-04-25T10:56:31;1.60;;;1.57;;
32082;SDS011;18597;48.328;7.932;2023-04-25T10:59:12;1.00;;;1.00;;
32082;SDS011;18597;48.328;7.932;2023-04-25T11:01:43;1.23;;;1.23;;
32082;SDS011;18597;48.328;7.932;2023-04-25T11:04:42;1.00;;;1.00;;
32082;SDS011;18597;48.328;7.932;2023-04-25T11:09:35;1.17;;;1.17;;
32082;SDS011;18597;48.328;7.932;2023-04-25T11:12:06;2.10;;;1.70;;
32082;SDS011;18597;48.328;7.932;2023-04-25T11:14:34;1.73;;;1.13;;
32082;SDS011;18597;48.328;7.932;2023-04-25T11:17:00;1.10;;;1.00;;
32082;SDS011;18597;48.328;7.932;2023-04-25T11:19:29;1.00;;;1.00;;
32082;SDS011;18597;48.328;7.932;2023-04-25T11:21:55;0.90;;;0.90;;
32082;SDS011;18597;48.328;7.932;2023-04-25T11:24:30;7.50;;;1.30;;
32082;SDS011;18597;48.328;7.932;2023-04-25T11:27:00;1.17;;;1.17;;
32082;SDS011;18597;48.328;7.932;2023-04-25T11:29:28;1.73;;;1.60;;
32082;SDS011;18597;48.328;7.932;2023-04-25T11:31:55;1.00;;;1.00;;
32082;SDS011;18597;48.328;7.932;2023-04-25T11:34:24;1.43;;;1.43;;
32082;SDS011;18597;48.328;7.932;2023-04-25T11:36:50;3.40;;;2.00;;
32082;SDS011;18597;48.328;7.932;2023-04-25T11:39:18;2.20;;;2.10;;
32082;SDS011;18597;48.328;7.932;2023-04-25T11:41:45;1.60;;;1.50;;
32082;SDS011;18597;48.328;7.932;2023-04-25T11:44:12;1.70;;;1.70;;
32082;SDS011;18597;48.328;7.932;2023-04-25T11:46:42;2.30;;;2.13;;
32082;SDS011;18597;48.328;7.932;2023-04-25T11:49:08;2.20;;;2.10;;
32082;SDS011;18597;48.328;7.932;2023-04-25T11:51:38;2.90;;;2.70;;
32082;SDS011;18597;48.328;7.932;2023-04-25T11:54:05;7.97;;;2.60;;
32082;SDS011;18597;48.328;7.932;2023-04-25T11:56:32;2.20;;;1.73;;
32082;SDS011;18597;48.328;7.932;2023-04-25T11:58:59;2.40;;;2.30;;
32082;SDS011;18597;48.328;7.932;2023-04-25T12:01:35;1.53;;;1.53;;
32082;SDS011;18597;48.328;7.932;2023-04-25T12:04:11;1.20;;;1.20;;
32082;SDS011;18597;48.328;7.932;2023-04-25T12:06:49;1.23;;;1.23;;
32082;SDS011;18597;48.328;7.932;2023-04-25T12:09:18;1.30;;;1.30;;
32082;SDS011;18597;48.328;7.932;2023-04-25T12:11:54;0.77;;;0.70;;
32082;SDS011;18597;48.328;7.932;2023-04-25T12:14:25;1.70;;;1.70;;
32082;SDS011;18597;48.328;7.932;2023-04-25T12:16:54;2.30;;;2.10;;
32082;SDS011;18597;48.328;7.932;2023-04-25T12:19:22;2.23;;;2.17;;
32082;SDS011;18597;48.328;7.932;2023-04-25T12:21:49;2.57;;;2.37;;
32082;SDS011;18597;48.328;7.932;2023-04-25T12:24:17;2.70;;;2.50;;
32082;SDS011;18597;48.328;7.932;2023-04-25T12:29:29;1.40;;;1.30;;
32082;SDS011;18597;48.328;7.932;2023-04-25T12:31:57;1.30;;;1.20;;
32082;SDS011;18597;48.328;7.932;2023-04-25T12:34:23;1.10;;;1.10;;
32082;SDS011;18597;48.328;7.932;2023-04-25T12:36:50;1.63;;;1.63;;
32082;SDS011;18597;48.328;7.932;2023-04-25T12:39:18;1.30;;;1.30;;
32082;SDS011;18597;48.328;7.932;2023-04-25T12:41:47;1.23;;;1.23;;
32082;SDS011;18597;48.328;7.932;2023-04-25T12:44:14;1.80;;;1.80;;
32082;SDS011;18597;48.328;7.932;2023-04-25T12:46:41;1.27;;;1.27;;
32082;SDS011;18597;48.328;7.932;2023-04-25T12:49:07;1.00;;;1.00;;
32082;SDS011;18597;48.328;7.932;2023-04-25T12:51:34;0.83;;;0.83;;
32082;SDS011;18597;48.328;7.932;2023-04-25T12:54:01;0.90;;;0.90;;
32082;SDS011;18597;48.328;7.932;2023-04-25T12:56:29;1.03;;;1.03;;
32082;SDS011;18597;48.328;7.932;2023-04-25T12:58:56;1.07;;;1.07;;
32082;SDS011;18597;48.328;7.932;2023-04-25T13:01:22;0.73;;;0.73;;
32082;SDS011;18597;48.328;7.932;2023-04-25T13:03:49;0.70;;;0.70;;
32082;SDS011;18597;48.328;7.932;2023-04-25T13:06:15;1.60;;;1.10;;
32082;SDS011;18597;48.328;7.932;2023-04-25T13:08:42;2.50;;;2.50;;
32082;SDS011;18597;48.328;7.932;2023-04-25T13:11:08;2.70;;;2.50;;
32082;SDS011;18597;48.328;7.932;2023-04-25T13:13:35;2.30;;;2.30;;
32082;SDS011;18597;48.328;7.932;2023-04-25T13:16:01;1.70;;;1.33;;
32082;SDS011;18597;48.328;7.932;2023-04-25T13:18:28;0.93;;;0.93;;
32082;SDS011;18597;48.328;7.932;2023-04-25T13:20:56;1.10;;;1.10;;
32082;SDS011;18597;48.328;7.932;2023-04-25T13:23:24;1.27;;;1.27;;
32082;SDS011;18597;48.328;7.932;2023-04-25T13:25:52;1.87;;;1.77;;
32082;SDS011;18597;48.328;7.932;2023-04-25T13:28:18;2.43;;;2.27;;
32082;SDS011;18597;48.328;7.932;2023-04-25T13:30:44;2.43;;;2.33;;
32082;SDS011;18597;48.328;7.932;2023-04-25T13:33:10;6.87;;;2.70;;
32082;SDS011;18597;48.328;7.932;2023-04-25T13:35:37;5.43;;;2.37;;
32082;SDS011;18597;48.328;7.932;2023-04-25T13:38:04;8.43;;;4.53;;
32082;SDS011;18597;48.328;7.932;2023-04-25T13:40:30;4.30;;;3.40;;
32082;SDS011;18597;48.328;7.932;2023-04-25T13:42:56;2.80;;;2.60;;
32082;SDS011;18597;48.328;7.932;2023-04-25T13:45:22;3.70;;;3.40;;
32082;SDS011;18597;48.328;7.932;2023-04-25T13:47:48;5.63;;;3.37;;
32082;SDS011;18597;48.328;7.932;2023-04-25T13:50:14;3.00;;;2.77;;
32082;SDS011;18597;48.328;7.932;2023-04-25T13:52:41;3.80;;;3.10;;
32082;SDS011;18597;48.328;7.932;2023-04-25T13:55:07;3.10;;;2.80;;
32082;SDS011;18597;48.328;7.932;2023-04-25T13:57:34;2.90;;;2.80;;
32082;SDS011;18597;48.328;7.932;2023-04-25T14:00:00;2.13;;;1.97;;
32082;SDS011;18597;48.328;7.932;2023-04-25T14:02:33;2.33;;;2.23;;
32082;SDS011;18597;48.328;7.932;2023-04-25T14:05:01;1.87;;;1.63;;
32082;SDS011;18597;48.328;7.932;2023-04-25T14:07:28;3.47;;;2.10;;
32082;SDS011;18597;48.328;7.932;2023-04-25T14:09:55;2.47;;;2.37;;
32082;SDS011;18597;48.328;7.932;2023-04-25T14:12:23;2.47;;;2.37;;
32082;SDS011;18597;48.328;7.932;2023-04-25T14:14:49;2.40;;;2.37;;
32082;SDS011;18597;48.328;7.932;2023-04-25T14:17:14;3.47;;;3.27;;
32082;SDS011;18597;48.328;7.932;2023-04-25T14:19:40;2.77;;;2.67;;
32082;SDS011;18597;48.328;7.932;2023-04-25T14:22:10;2.77;;;2.67;;
32082;SDS011;18597;48.328;7.932;2023-04-25T14:24:36;2.50;;;2.43;;
32082;SDS011;18597;48.328;7.932;2023-04-25T14:27:03;3.70;;;3.50;;
32082;SDS011;18597;48.328;7.932;2023-04-25T14:29:29;3.43;;;3.17;;
32082;SDS011;18597;48.328;7.932;2023-04-25T14:31:55;2.77;;;2.10;;
32082;SDS011;18597;48.328;7.932;2023-04-25T14:34:22;2.40;;;2.30;;
32082;SDS011;18597;48.328;7.932;2023-04-25T14:36:48;1.70;;;1.60;;
32082;SDS011;18597;48.328;7.932;2023-04-25T14:39:14;3.10;;;2.90;;
32082;SDS011;18597;48.328;7.932;2023-04-25T14:41:41;2.27;;;2.27;;
32082;SDS011;18597;48.328;7.932;2023-04-25T14:44:07;3.13;;;3.03;;
32082;SDS011;18597;48.328;7.932;2023-04-25T14:46:33;2.30;;;2.20;;
32082;SDS011;18597;48.328;7.932;2023-04-25T14:48:59;2.13;;;2.13;;
32082;SDS011;18597;48.328;7.932;2023-04-25T14:51:25;2.30;;;2.10;;
32082;SDS011;18597;48.328;7.932;2023-04-25T14:53:51;2.97;;;2.60;;
32082;SDS011;18597;48.328;7.932;2023-04-25T14:56:17;2.00;;;1.90;;